sensor_id;sensor_type;location;lat;lon;timestamp;P1;durP1;ratioP1;P2;durP2;ratioP2
13897;SDS011;7019;50.766;4.474;2023-02-28T00:00:46;8.37;;;5.10;;
13897;SDS011;7019;50.766;4.474;2023-02-28T00:03:13;8.90;;;5.07;;
13897;SDS011;7019;50.766;4.474;2023-02-28T00:05:41;10.67;;;5.40;;
13897;SDS011;7019;50.766;4.474;2023-02-28T00:08:08;8.13;;;5.43;;
13897;SDS011;7019;50.766;4.474;2023-02-28T00:10:36;8.67;;;5.50;;
13897;SDS011;7019;50.766;4.474;2023-02-28T00:13:05;13.30;;;5.67;;
13897;SDS011;7019;50.766;4.474;2023-02-28T00:15:32;8.67;;;5.20;;
13897;SDS011;7019;50.766;4.474;2023-02-28T00:18:00;8.70;;;5.77;;
13897;SDS011;7019;50.766;4.474;2023-02-28T00:20:27;6.37;;;5.40;;
13897;SDS011;7019;50.766;4.474;2023-02-28T00:22:54;7.13;;;5.10;;
13897;SDS011;7019;50.766;4.474;2023-02-28T00:25:22;5.67;;;4.63;;
13897;SDS011;7019;50.766;4.474;2023-02-28T00:27:51;7.93;;;4.80;;
13897;SDS011;7019;50.766;4.474;2023-02-28T00:30:20;8.83;;;5.07;;
13897;SDS011;7019;50.766;4.474;2023-02-28T00:32:48;9.47;;;4.73;;
13897;SDS011;7019;50.766;4.474;2023-02-28T00:35:16;6.03;;;4.50;;
13897;SDS011;7019;50.766;4.474;2023-02-28T00:37:43;9.27;;;5.37;;
13897;SDS011;7019;50.766;4.474;2023-02-28T00:40:11;7.17;;;4.90;;
13897;SDS011;7019;50.766;4.474;2023-02-28T00:42:38;9.20;;;5.43;;
13897;SDS011;7019;50.766;4.474;2023-02-28T00:45:06;5.53;;;4.43;;
13897;SDS011;7019;50.766;4.474;2023-02-28T00:47:35;6.13;;;4.70;;
13897;SDS011;7019;50.766;4.474;2023-02-28T00:50:03;6.80;;;4.87;;
13897;SDS011;7019;50.766;4.474;2023-02-28T00:52:31;7.77;;;5.00;;
13897;SDS011;7019;50.766;4.474;2023-02-28T00:54:58;6.37;;;4.90;;
13897;SDS011;7019;50.766;4.474;2023-02-28T00:57:25;8.90;;;5.93;;
13897;SDS011;7019;50.766;4.474;2023-02-28T00:59:52;9.53;;;5.13;;
13897;SDS011;7019;50.766;4.474;2023-02-28T01:02:20;9.47;;;5.53;;
13897;SDS011;7019;50.766;4.474;2023-02-28T01:04:49;7.80;;;4.93;;
13897;SDS011;7019;50.766;4.474;2023-02-28T01:07:16;6.37;;;4.60;;
13897;SDS011;7019;50.766;4.474;2023-02-28T01:09:43;7.03;;;4.87;;
13897;SDS011;7019;50.766;4.474;2023-02-28T01:12:10;7.53;;;5.40;;
13897;SDS011;7019;50.766;4.474;2023-02-28T01:14:37;5.73;;;4.47;;
13897;SDS011;7019;50.766;4.474;2023-02-28T01:17:04;7.47;;;5.50;;
13897;SDS011;7019;50.766;4.474;2023-02-28T01:19:31;7.23;;;5.27;;
13897;SDS011;7019;50.766;4.474;2023-02-28T01:22:01;9.77;;;5.00;;
13897;SDS011;7019;50.766;4.474;2023-02-28T01:24:29;7.67;;;5.40;;
13897;SDS011;7019;50.766;4.474;2023-02-28T01:26:56;8.07;;;5.80;;
13897;SDS011;7019;50.766;4.474;2023-02-28T01:29:23;9.17;;;5.03;;
13897;SDS011;7019;50.766;4.474;2023-02-28T01:31:50;8.17;;;5.40;;
13897;SDS011;7019;50.766;4.474;2023-02-28T01:34:17;7.37;;;5.40;;
13897;SDS011;7019;50.766;4.474;2023-02-28T01:36:45;8.03;;;5.33;;
13897;SDS011;7019;50.766;4.474;2023-02-28T01:39:13;7.33;;;5.70;;
13897;SDS011;7019;50.766;4.474;2023-02-28T01:41:40;6.00;;;4.80;;
13897;SDS011;7019;50.766;4.474;2023-02-28T01:47:08;5.93;;;5.10;;
13897;SDS011;7019;50.766;4.474;2023-02-28T01:49:35;7.50;;;5.00;;
13897;SDS011;7019;50.766;4.474;2023-02-28T01:52:03;9.83;;;6.03;;
13897;SDS011;7019;50.766;4.474;2023-02-28T01:54:33;7.77;;;5.40;;
13897;SDS011;7019;50.766;4.474;2023-02-28T01:57:01;8.83;;;5.57;;
13897;SDS011;7019;50.766;4.474;2023-02-28T01:59:32;10.37;;;5.63;;
13897;SDS011;7019;50.766;4.474;2023-02-28T02:02:03;9.57;;;5.43;;
13897;SDS011;7019;50.766;4.474;2023-02-28T02:04:32;8.47;;;6.30;;
13897;SDS011;7019;50.766;4.474;2023-02-28T02:07:02;8.23;;;5.87;;
13897;SDS011;7019;50.766;4.474;2023-02-28T02:09:31;8.37;;;5.50;;
13897;SDS011;7019;50.766;4.474;2023-02-28T02:11:58;7.67;;;5.20;;
13897;SDS011;7019;50.766;4.474;2023-02-28T02:14:37;6.50;;;5.17;;
13897;SDS011;7019;50.766;4.474;2023-02-28T02:17:18;6.93;;;5.63;;
13897;SDS011;7019;50.766;4.474;2023-02-28T02:23:02;8.50;;;5.37;;
13897;SDS011;7019;50.766;4.474;2023-02-28T02:25:46;13.43;;;5.07;;
13897;SDS011;7019;50.766;4.474;2023-02-28T02:28:26;8.03;;;5.17;;
13897;SDS011;7019;50.766;4.474;2023-02-28T02:31:13;6.73;;;6.03;;
13897;SDS011;7019;50.766;4.474;2023-02-28T02:37:13;14.70;;;5.60;;
13897;SDS011;7019;50.766;4.474;2023-02-28T02:39:54;10.43;;;5.40;;
13897;SDS011;7019;50.766;4.474;2023-02-28T02:42:29;9.77;;;6.43;;
13897;SDS011;7019;50.766;4.474;2023-02-28T02:45:03;8.17;;;6.00;;
13897;SDS011;7019;50.766;4.474;2023-02-28T02:47:35;13.93;;;6.07;;
13897;SDS011;7019;50.766;4.474;2023-02-28T02:50:07;8.37;;;6.73;;
13897;SDS011;7019;50.766;4.474;2023-02-28T02:52:39;7.37;;;6.00;;
13897;SDS011;7019;50.766;4.474;2023-02-28T02:55:09;9.87;;;5.97;;
13897;SDS011;7019;50.766;4.474;2023-02-28T02:57:40;11.13;;;5.47;;
13897;SDS011;7019;50.766;4.474;2023-02-28T03:00:12;5.43;;;4.93;;
13897;SDS011;7019;50.766;4.474;2023-02-28T03:02:41;7.30;;;6.50;;
13897;SDS011;7019;50.766;4.474;2023-02-28T03:05:15;8.30;;;6.00;;
13897;SDS011;7019;50.766;4.474;2023-02-28T03:07:45;9.93;;;6.57;;
13897;SDS011;7019;50.766;4.474;2023-02-28T03:10:33;9.93;;;6.00;;
13897;SDS011;7019;50.766;4.474;2023-02-28T03:13:15;7.07;;;6.33;;
13897;SDS011;7019;50.766;4.474;2023-02-28T03:16:07;11.63;;;6.87;;
13897;SDS011;7019;50.766;4.474;2023-02-28T03:18:54;10.47;;;5.80;;
13897;SDS011;7019;50.766;4.474;2023-02-28T03:21:32;8.83;;;6.90;;
13897;SDS011;7019;50.766;4.474;2023-02-28T03:24:04;9.27;;;6.80;;
13897;SDS011;7019;50.766;4.474;2023-02-28T03:26:36;14.17;;;7.33;;
13897;SDS011;7019;50.766;4.474;2023-02-28T03:29:10;8.30;;;6.87;;
13897;SDS011;7019;50.766;4.474;2023-02-28T03:31:44;10.70;;;7.70;;
13897;SDS011;7019;50.766;4.474;2023-02-28T03:34:16;8.67;;;6.83;;
13897;SDS011;7019;50.766;4.474;2023-02-28T03:36:50;10.73;;;7.70;;
13897;SDS011;7019;50.766;4.474;2023-02-28T03:39:22;7.63;;;6.67;;
13897;SDS011;7019;50.766;4.474;2023-02-28T03:41:56;11.17;;;7.03;;
13897;SDS011;7019;50.766;4.474;2023-02-28T03:44:27;9.47;;;7.07;;
13897;SDS011;7019;50.766;4.474;2023-02-28T03:46:57;12.47;;;7.63;;
13897;SDS011;7019;50.766;4.474;2023-02-28T03:49:28;9.40;;;6.73;;
13897;SDS011;7019;50.766;4.474;2023-02-28T03:52:00;9.20;;;7.40;;
13897;SDS011;7019;50.766;4.474;2023-02-28T03:54:32;9.97;;;7.67;;
13897;SDS011;7019;50.766;4.474;2023-02-28T03:57:04;11.67;;;7.70;;
13897;SDS011;7019;50.766;4.474;2023-02-28T03:59:37;11.07;;;7.80;;
13897;SDS011;7019;50.766;4.474;2023-02-28T04:02:07;12.23;;;8.03;;
13897;SDS011;7019;50.766;4.474;2023-02-28T04:04:35;9.43;;;7.43;;
13897;SDS011;7019;50.766;4.474;2023-02-28T04:07:04;10.00;;;7.87;;
13897;SDS011;7019;50.766;4.474;2023-02-28T04:09:32;8.83;;;7.23;;
13897;SDS011;7019;50.766;4.474;2023-02-28T04:12:00;15.60;;;8.77;;
13897;SDS011;7019;50.766;4.474;2023-02-28T04:14:27;10.83;;;8.03;;
13897;SDS011;7019;50.766;4.474;2023-02-28T04:16:54;14.60;;;8.87;;
13897;SDS011;7019;50.766;4.474;2023-02-28T04:19:21;10.53;;;8.70;;
13897;SDS011;7019;50.766;4.474;2023-02-28T04:21:49;12.83;;;8.03;;
13897;SDS011;7019;50.766;4.474;2023-02-28T04:24:19;11.00;;;8.13;;
13897;SDS011;7019;50.766;4.474;2023-02-28T04:26:48;11.30;;;8.63;;
13897;SDS011;7019;50.766;4.474;2023-02-28T04:29:18;13.57;;;8.50;;
13897;SDS011;7019;50.766;4.474;2023-02-28T04:31:46;10.87;;;7.93;;
13897;SDS011;7019;50.766;4.474;2023-02-28T04:34:13;11.13;;;8.17;;
13897;SDS011;7019;50.766;4.474;2023-02-28T04:36:40;14.27;;;8.30;;
13897;SDS011;7019;50.766;4.474;2023-02-28T04:39:07;11.20;;;8.87;;
13897;SDS011;7019;50.766;4.474;2023-02-28T04:41:37;16.37;;;9.03;;
13897;SDS011;7019;50.766;4.474;2023-02-28T04:44:04;11.50;;;8.77;;
13897;SDS011;7019;50.766;4.474;2023-02-28T04:46:31;10.27;;;7.57;;
13897;SDS011;7019;50.766;4.474;2023-02-28T04:48:58;11.57;;;8.20;;
13897;SDS011;7019;50.766;4.474;2023-02-28T04:51:25;11.17;;;8.60;;
13897;SDS011;7019;50.766;4.474;2023-02-28T04:53:53;12.07;;;8.20;;
13897;SDS011;7019;50.766;4.474;2023-02-28T04:56:20;12.83;;;8.63;;
13897;SDS011;7019;50.766;4.474;2023-02-28T04:58:48;10.27;;;8.13;;
13897;SDS011;7019;50.766;4.474;2023-02-28T05:01:19;15.23;;;9.67;;
13897;SDS011;7019;50.766;4.474;2023-02-28T05:03:48;11.50;;;9.03;;
13897;SDS011;7019;50.766;4.474;2023-02-28T05:06:16;14.00;;;9.23;;
13897;SDS011;7019;50.766;4.474;2023-02-28T05:08:45;12.63;;;8.50;;
13897;SDS011;7019;50.766;4.474;2023-02-28T05:11:14;15.57;;;10.43;;
13897;SDS011;7019;50.766;4.474;2023-02-28T05:13:43;12.87;;;9.20;;
13897;SDS011;7019;50.766;4.474;2023-02-28T05:16:12;14.93;;;10.17;;
13897;SDS011;7019;50.766;4.474;2023-02-28T05:18:39;13.30;;;9.47;;
13897;SDS011;7019;50.766;4.474;2023-02-28T05:21:12;14.37;;;10.07;;
13897;SDS011;7019;50.766;4.474;2023-02-28T05:23:53;13.93;;;10.00;;
13897;SDS011;7019;50.766;4.474;2023-02-28T05:26:21;12.27;;;9.47;;
13897;SDS011;7019;50.766;4.474;2023-02-28T05:28:48;18.53;;;10.37;;
13897;SDS011;7019;50.766;4.474;2023-02-28T05:31:16;14.27;;;9.70;;
13897;SDS011;7019;50.766;4.474;2023-02-28T05:33:43;18.27;;;10.20;;
13897;SDS011;7019;50.766;4.474;2023-02-28T05:36:11;21.23;;;10.93;;
13897;SDS011;7019;50.766;4.474;2023-02-28T05:38:38;20.90;;;11.30;;
13897;SDS011;7019;50.766;4.474;2023-02-28T05:41:05;20.47;;;10.30;;
13897;SDS011;7019;50.766;4.474;2023-02-28T05:43:33;13.57;;;9.97;;
13897;SDS011;7019;50.766;4.474;2023-02-28T05:46:02;12.53;;;10.07;;
13897;SDS011;7019;50.766;4.474;2023-02-28T05:48:31;15.90;;;10.73;;
13897;SDS011;7019;50.766;4.474;2023-02-28T05:50:59;13.30;;;9.90;;
13897;SDS011;7019;50.766;4.474;2023-02-28T05:53:27;18.60;;;11.47;;
13897;SDS011;7019;50.766;4.474;2023-02-28T05:55:55;15.03;;;10.53;;
13897;SDS011;7019;50.766;4.474;2023-02-28T05:58:22;15.93;;;10.60;;
13897;SDS011;7019;50.766;4.474;2023-02-28T06:00:50;13.00;;;10.80;;
13897;SDS011;7019;50.766;4.474;2023-02-28T06:03:17;17.33;;;10.57;;
13897;SDS011;7019;50.766;4.474;2023-02-28T06:05:46;15.13;;;9.87;;
13897;SDS011;7019;50.766;4.474;2023-02-28T06:08:13;12.33;;;10.40;;
13897;SDS011;7019;50.766;4.474;2023-02-28T06:10:40;13.03;;;10.60;;
13897;SDS011;7019;50.766;4.474;2023-02-28T06:13:07;19.10;;;10.50;;
13897;SDS011;7019;50.766;4.474;2023-02-28T06:15:34;18.17;;;9.90;;
13897;SDS011;7019;50.766;4.474;2023-02-28T06:18:01;25.87;;;14.83;;
13897;SDS011;7019;50.766;4.474;2023-02-28T06:20:29;27.27;;;16.10;;
13897;SDS011;7019;50.766;4.474;2023-02-28T06:22:58;18.57;;;12.90;;
13897;SDS011;7019;50.766;4.474;2023-02-28T06:25:25;21.40;;;12.47;;
13897;SDS011;7019;50.766;4.474;2023-02-28T06:27:52;17.30;;;11.97;;
13897;SDS011;7019;50.766;4.474;2023-02-28T06:30:19;14.60;;;11.13;;
13897;SDS011;7019;50.766;4.474;2023-02-28T06:32:49;21.00;;;12.33;;
13897;SDS011;7019;50.766;4.474;2023-02-28T06:35:17;17.97;;;12.00;;
13897;SDS011;7019;50.766;4.474;2023-02-28T06:37:44;17.33;;;12.53;;
13897;SDS011;7019;50.766;4.474;2023-02-28T06:40:13;17.20;;;12.33;;
13897;SDS011;7019;50.766;4.474;2023-02-28T06:42:41;18.87;;;12.70;;
13897;SDS011;7019;50.766;4.474;2023-02-28T06:45:09;15.80;;;11.63;;
13897;SDS011;7019;50.766;4.474;2023-02-28T06:47:37;15.67;;;11.80;;
13897;SDS011;7019;50.766;4.474;2023-02-28T06:50:06;14.50;;;10.93;;
13897;SDS011;7019;50.766;4.474;2023-02-28T06:52:34;14.47;;;10.83;;
13897;SDS011;7019;50.766;4.474;2023-02-28T06:55:02;13.87;;;10.23;;
13897;SDS011;7019;50.766;4.474;2023-02-28T06:57:32;16.30;;;10.87;;
13897;SDS011;7019;50.766;4.474;2023-02-28T07:00:01;17.00;;;10.87;;
13897;SDS011;7019;50.766;4.474;2023-02-28T07:02:32;14.37;;;10.90;;
13897;SDS011;7019;50.766;4.474;2023-02-28T07:05:00;12.87;;;11.13;;
13897;SDS011;7019;50.766;4.474;2023-02-28T07:07:27;15.27;;;10.63;;
13897;SDS011;7019;50.766;4.474;2023-02-28T07:09:54;16.10;;;10.50;;
13897;SDS011;7019;50.766;4.474;2023-02-28T07:12:21;15.43;;;10.60;;
13897;SDS011;7019;50.766;4.474;2023-02-28T07:14:50;12.93;;;9.70;;
13897;SDS011;7019;50.766;4.474;2023-02-28T07:17:17;15.23;;;9.80;;
13897;SDS011;7019;50.766;4.474;2023-02-28T07:19:44;13.27;;;10.30;;
13897;SDS011;7019;50.766;4.474;2023-02-28T07:22:11;12.93;;;9.23;;
13897;SDS011;7019;50.766;4.474;2023-02-28T07:24:38;16.23;;;9.17;;
13897;SDS011;7019;50.766;4.474;2023-02-28T07:27:05;10.37;;;7.93;;
13897;SDS011;7019;50.766;4.474;2023-02-28T07:29:32;12.73;;;7.80;;
13897;SDS011;7019;50.766;4.474;2023-02-28T07:32:00;10.67;;;7.30;;
13897;SDS011;7019;50.766;4.474;2023-02-28T07:34:27;13.30;;;7.83;;
13897;SDS011;7019;50.766;4.474;2023-02-28T07:36:55;12.37;;;6.77;;
13897;SDS011;7019;50.766;4.474;2023-02-28T07:39:22;11.80;;;7.47;;
13897;SDS011;7019;50.766;4.474;2023-02-28T07:41:49;9.83;;;7.37;;
13897;SDS011;7019;50.766;4.474;2023-02-28T07:44:16;12.30;;;6.60;;
13897;SDS011;7019;50.766;4.474;2023-02-28T07:46:44;9.43;;;6.80;;
13897;SDS011;7019;50.766;4.474;2023-02-28T07:49:13;9.80;;;6.80;;
13897;SDS011;7019;50.766;4.474;2023-02-28T07:51:40;15.27;;;6.63;;
13897;SDS011;7019;50.766;4.474;2023-02-28T07:54:07;9.27;;;6.63;;
13897;SDS011;7019;50.766;4.474;2023-02-28T07:56:34;8.87;;;6.10;;
13897;SDS011;7019;50.766;4.474;2023-02-28T07:59:01;8.03;;;5.83;;
13897;SDS011;7019;50.766;4.474;2023-02-28T08:01:28;8.67;;;5.27;;
13897;SDS011;7019;50.766;4.474;2023-02-28T08:03:55;6.70;;;5.23;;
13897;SDS011;7019;50.766;4.474;2023-02-28T08:06:24;8.23;;;5.60;;
13897;SDS011;7019;50.766;4.474;2023-02-28T08:08:52;7.80;;;5.30;;
13897;SDS011;7019;50.766;4.474;2023-02-28T08:11:21;7.53;;;5.30;;
13897;SDS011;7019;50.766;4.474;2023-02-28T08:13:48;7.77;;;5.53;;
13897;SDS011;7019;50.766;4.474;2023-02-28T08:16:15;6.70;;;5.40;;
13897;SDS011;7019;50.766;4.474;2023-02-28T08:18:47;7.97;;;5.07;;
13897;SDS011;7019;50.766;4.474;2023-02-28T08:21:15;7.53;;;5.50;;
13897;SDS011;7019;50.766;4.474;2023-02-28T08:23:43;11.47;;;5.73;;
13897;SDS011;7019;50.766;4.474;2023-02-28T08:26:12;12.10;;;6.10;;
13897;SDS011;7019;50.766;4.474;2023-02-28T08:28:39;12.47;;;5.03;;
13897;SDS011;7019;50.766;4.474;2023-02-28T08:31:07;6.20;;;4.77;;
13897;SDS011;7019;50.766;4.474;2023-02-28T08:33:35;6.33;;;5.37;;
13897;SDS011;7019;50.766;4.474;2023-02-28T08:36:04;6.53;;;4.53;;
13897;SDS011;7019;50.766;4.474;2023-02-28T08:38:32;6.77;;;4.63;;
13897;SDS011;7019;50.766;4.474;2023-02-28T08:41:01;6.90;;;5.00;;
13897;SDS011;7019;50.766;4.474;2023-02-28T08:43:31;11.60;;;5.13;;
13897;SDS011;7019;50.766;4.474;2023-02-28T08:45:58;8.70;;;4.93;;
13897;SDS011;7019;50.766;4.474;2023-02-28T08:48:25;4.77;;;4.27;;
13897;SDS011;7019;50.766;4.474;2023-02-28T08:50:56;6.03;;;4.53;;
13897;SDS011;7019;50.766;4.474;2023-02-28T08:53:24;5.67;;;4.40;;
13897;SDS011;7019;50.766;4.474;2023-02-28T08:55:57;6.70;;;4.33;;
13897;SDS011;7019;50.766;4.474;2023-02-28T08:58:27;9.20;;;5.10;;
13897;SDS011;7019;50.766;4.474;2023-02-28T09:00:54;6.20;;;4.47;;
13897;SDS011;7019;50.766;4.474;2023-02-28T09:03:21;6.67;;;4.40;;
13897;SDS011;7019;50.766;4.474;2023-02-28T09:05:56;7.27;;;4.50;;
13897;SDS011;7019;50.766;4.474;2023-02-28T09:08:24;8.73;;;4.07;;
13897;SDS011;7019;50.766;4.474;2023-02-28T09:10:52;6.03;;;4.53;;
13897;SDS011;7019;50.766;4.474;2023-02-28T09:13:22;5.70;;;4.10;;
13897;SDS011;7019;50.766;4.474;2023-02-28T09:15:52;6.00;;;3.57;;
13897;SDS011;7019;50.766;4.474;2023-02-28T09:18:20;8.37;;;4.27;;
13897;SDS011;7019;50.766;4.474;2023-02-28T09:20:47;9.90;;;4.87;;
13897;SDS011;7019;50.766;4.474;2023-02-28T09:23:15;8.17;;;4.30;;
13897;SDS011;7019;50.766;4.474;2023-02-28T09:25:46;4.63;;;3.70;;
13897;SDS011;7019;50.766;4.474;2023-02-28T09:28:14;6.73;;;3.87;;
13897;SDS011;7019;50.766;4.474;2023-02-28T09:30:42;6.83;;;3.50;;
13897;SDS011;7019;50.766;4.474;2023-02-28T09:33:12;6.07;;;3.40;;
13897;SDS011;7019;50.766;4.474;2023-02-28T09:35:40;7.60;;;3.70;;
13897;SDS011;7019;50.766;4.474;2023-02-28T09:38:08;4.00;;;3.10;;
13897;SDS011;7019;50.766;4.474;2023-02-28T09:40:36;5.63;;;3.20;;
13897;SDS011;7019;50.766;4.474;2023-02-28T09:43:09;5.37;;;3.80;;
13897;SDS011;7019;50.766;4.474;2023-02-28T09:45:40;3.83;;;2.80;;
13897;SDS011;7019;50.766;4.474;2023-02-28T09:48:11;5.83;;;2.27;;
13897;SDS011;7019;50.766;4.474;2023-02-28T09:50:43;3.77;;;2.77;;
13897;SDS011;7019;50.766;4.474;2023-02-28T09:53:15;4.53;;;2.70;;
13897;SDS011;7019;50.766;4.474;2023-02-28T09:55:48;7.07;;;3.20;;
13897;SDS011;7019;50.766;4.474;2023-02-28T09:58:20;4.07;;;2.90;;
13897;SDS011;7019;50.766;4.474;2023-02-28T10:00:56;2.87;;;2.57;;
13897;SDS011;7019;50.766;4.474;2023-02-28T10:03:32;4.20;;;2.43;;
13897;SDS011;7019;50.766;4.474;2023-02-28T10:06:07;2.97;;;2.50;;
13897;SDS011;7019;50.766;4.474;2023-02-28T10:08:40;4.53;;;2.63;;
13897;SDS011;7019;50.766;4.474;2023-02-28T10:11:16;3.00;;;1.73;;
13897;SDS011;7019;50.766;4.474;2023-02-28T10:13:51;2.83;;;1.80;;
13897;SDS011;7019;50.766;4.474;2023-02-28T10:16:27;2.23;;;1.50;;
13897;SDS011;7019;50.766;4.474;2023-02-28T10:19:02;3.33;;;2.00;;
13897;SDS011;7019;50.766;4.474;2023-02-28T10:21:34;3.57;;;2.17;;
13897;SDS011;7019;50.766;4.474;2023-02-28T10:24:04;2.67;;;1.87;;
13897;SDS011;7019;50.766;4.474;2023-02-28T10:26:41;4.57;;;2.10;;
13897;SDS011;7019;50.766;4.474;2023-02-28T10:29:11;7.33;;;1.93;;
13897;SDS011;7019;50.766;4.474;2023-02-28T10:31:38;5.17;;;1.97;;
13897;SDS011;7019;50.766;4.474;2023-02-28T10:34:08;2.00;;;1.70;;
13897;SDS011;7019;50.766;4.474;2023-02-28T10:36:39;3.37;;;1.80;;
13897;SDS011;7019;50.766;4.474;2023-02-28T10:42:00;2.90;;;2.10;;
13897;SDS011;7019;50.766;4.474;2023-02-28T10:44:27;3.57;;;2.07;;
13897;SDS011;7019;50.766;4.474;2023-02-28T10:46:54;6.03;;;1.60;;
13897;SDS011;7019;50.766;4.474;2023-02-28T10:49:24;3.30;;;1.63;;
13897;SDS011;7019;50.766;4.474;2023-02-28T10:51:54;2.87;;;1.77;;
13897;SDS011;7019;50.766;4.474;2023-02-28T10:54:28;2.53;;;1.60;;
13897;SDS011;7019;50.766;4.474;2023-02-28T10:57:05;2.47;;;1.70;;
13897;SDS011;7019;50.766;4.474;2023-02-28T10:59:34;2.27;;;1.63;;
13897;SDS011;7019;50.766;4.474;2023-02-28T11:02:02;3.37;;;1.73;;
13897;SDS011;7019;50.766;4.474;2023-02-28T11:04:54;3.53;;;1.63;;
13897;SDS011;7019;50.766;4.474;2023-02-28T11:07:22;2.50;;;1.80;;
13897;SDS011;7019;50.766;4.474;2023-02-28T11:09:51;4.13;;;1.97;;
13897;SDS011;7019;50.766;4.474;2023-02-28T11:12:20;3.10;;;2.13;;
13897;SDS011;7019;50.766;4.474;2023-02-28T11:14:49;3.30;;;1.87;;
13897;SDS011;7019;50.766;4.474;2023-02-28T11:17:19;2.53;;;1.77;;
13897;SDS011;7019;50.766;4.474;2023-02-28T11:19:49;1.93;;;1.50;;
13897;SDS011;7019;50.766;4.474;2023-02-28T11:22:21;4.27;;;2.27;;
13897;SDS011;7019;50.766;4.474;2023-02-28T11:24:54;3.07;;;2.00;;
13897;SDS011;7019;50.766;4.474;2023-02-28T11:27:24;2.77;;;2.10;;
13897;SDS011;7019;50.766;4.474;2023-02-28T11:30:22;2.17;;;1.70;;
13897;SDS011;7019;50.766;4.474;2023-02-28T11:32:51;2.33;;;2.00;;
13897;SDS011;7019;50.766;4.474;2023-02-28T11:35:21;4.03;;;2.07;;
13897;SDS011;7019;50.766;4.474;2023-02-28T11:37:53;2.53;;;1.97;;
13897;SDS011;7019;50.766;4.474;2023-02-28T11:40:22;4.27;;;2.20;;
13897;SDS011;7019;50.766;4.474;2023-02-28T11:43:10;2.80;;;2.13;;
13897;SDS011;7019;50.766;4.474;2023-02-28T11:45:52;11.83;;;3.00;;
13897;SDS011;7019;50.766;4.474;2023-02-28T11:48:30;2.73;;;1.87;;
13897;SDS011;7019;50.766;4.474;2023-02-28T11:51:06;5.77;;;2.10;;
13897;SDS011;7019;50.766;4.474;2023-02-28T11:53:49;2.50;;;1.80;;
13897;SDS011;7019;50.766;4.474;2023-02-28T11:56:26;2.77;;;1.80;;
13897;SDS011;7019;50.766;4.474;2023-02-28T11:59:01;9.93;;;2.10;;
13897;SDS011;7019;50.766;4.474;2023-02-28T12:01:41;5.87;;;2.00;;
13897;SDS011;7019;50.766;4.474;2023-02-28T12:04:21;2.60;;;1.77;;
13897;SDS011;7019;50.766;4.474;2023-02-28T12:06:56;3.40;;;2.00;;
13897;SDS011;7019;50.766;4.474;2023-02-28T12:09:38;3.30;;;1.80;;
13897;SDS011;7019;50.766;4.474;2023-02-28T12:12:18;4.73;;;1.67;;
13897;SDS011;7019;50.766;4.474;2023-02-28T12:15:04;2.20;;;2.00;;
13897;SDS011;7019;50.766;4.474;2023-02-28T12:17:48;2.63;;;2.37;;
13897;SDS011;7019;50.766;4.474;2023-02-28T12:20:25;2.97;;;2.03;;
13897;SDS011;7019;50.766;4.474;2023-02-28T12:23:15;3.87;;;1.80;;
13897;SDS011;7019;50.766;4.474;2023-02-28T12:25:56;9.40;;;2.53;;
13897;SDS011;7019;50.766;4.474;2023-02-28T12:28:28;3.07;;;1.97;;
13897;SDS011;7019;50.766;4.474;2023-02-28T12:31:00;4.93;;;1.97;;
13897;SDS011;7019;50.766;4.474;2023-02-28T12:33:32;8.20;;;2.00;;
13897;SDS011;7019;50.766;4.474;2023-02-28T12:36:04;4.00;;;1.67;;
13897;SDS011;7019;50.766;4.474;2023-02-28T12:38:36;4.00;;;1.90;;
13897;SDS011;7019;50.766;4.474;2023-02-28T12:41:10;5.83;;;2.10;;
13897;SDS011;7019;50.766;4.474;2023-02-28T12:43:41;2.53;;;2.30;;
13897;SDS011;7019;50.766;4.474;2023-02-28T12:46:11;2.70;;;1.90;;
13897;SDS011;7019;50.766;4.474;2023-02-28T12:48:43;2.80;;;2.20;;
13897;SDS011;7019;50.766;4.474;2023-02-28T12:51:13;2.73;;;2.33;;
13897;SDS011;7019;50.766;4.474;2023-02-28T12:53:47;2.30;;;1.57;;
13897;SDS011;7019;50.766;4.474;2023-02-28T12:56:23;2.17;;;1.77;;
13897;SDS011;7019;50.766;4.474;2023-02-28T12:59:01;4.87;;;2.10;;
13897;SDS011;7019;50.766;4.474;2023-02-28T13:01:42;3.03;;;2.30;;
13897;SDS011;7019;50.766;4.474;2023-02-28T13:04:24;3.63;;;2.33;;
13897;SDS011;7019;50.766;4.474;2023-02-28T13:07:16;2.10;;;1.90;;
13897;SDS011;7019;50.766;4.474;2023-02-28T13:09:58;2.47;;;1.57;;
13897;SDS011;7019;50.766;4.474;2023-02-28T13:12:30;4.07;;;1.80;;
13897;SDS011;7019;50.766;4.474;2023-02-28T13:15:07;5.30;;;2.80;;
13897;SDS011;7019;50.766;4.474;2023-02-28T13:17:47;4.37;;;1.83;;
13897;SDS011;7019;50.766;4.474;2023-02-28T13:20:16;4.30;;;2.10;;
13897;SDS011;7019;50.766;4.474;2023-02-28T13:22:45;2.50;;;1.87;;
13897;SDS011;7019;50.766;4.474;2023-02-28T13:31:33;3.17;;;1.77;;
13897;SDS011;7019;50.766;4.474;2023-02-28T13:34:21;2.70;;;1.70;;
13897;SDS011;7019;50.766;4.474;2023-02-28T13:36:48;2.33;;;2.13;;
13897;SDS011;7019;50.766;4.474;2023-02-28T13:42:23;2.27;;;1.97;;
13897;SDS011;7019;50.766;4.474;2023-02-28T13:47:56;5.97;;;2.13;;
13897;SDS011;7019;50.766;4.474;2023-02-28T13:50:27;4.73;;;2.10;;
13897;SDS011;7019;50.766;4.474;2023-02-28T13:53:14;1.70;;;1.60;;
13897;SDS011;7019;50.766;4.474;2023-02-28T13:56:03;2.17;;;1.80;;
13897;SDS011;7019;50.766;4.474;2023-02-28T13:58:41;2.27;;;1.50;;
13897;SDS011;7019;50.766;4.474;2023-02-28T14:01:16;5.90;;;1.80;;
13897;SDS011;7019;50.766;4.474;2023-02-28T14:04:01;2.87;;;1.70;;
13897;SDS011;7019;50.766;4.474;2023-02-28T14:06:46;2.20;;;1.83;;
13897;SDS011;7019;50.766;4.474;2023-02-28T14:09:19;4.80;;;2.17;;
13897;SDS011;7019;50.766;4.474;2023-02-28T14:11:51;2.00;;;1.57;;
13897;SDS011;7019;50.766;4.474;2023-02-28T14:17:20;2.13;;;1.93;;
13897;SDS011;7019;50.766;4.474;2023-02-28T14:19:49;4.57;;;1.73;;
13897;SDS011;7019;50.766;4.474;2023-02-28T14:22:24;2.77;;;1.97;;
13897;SDS011;7019;50.766;4.474;2023-02-28T14:25:11;4.07;;;2.03;;
13897;SDS011;7019;50.766;4.474;2023-02-28T14:27:48;2.53;;;1.90;;
13897;SDS011;7019;50.766;4.474;2023-02-28T14:30:37;3.07;;;1.90;;
13897;SDS011;7019;50.766;4.474;2023-02-28T14:33:18;3.53;;;1.93;;
13897;SDS011;7019;50.766;4.474;2023-02-28T14:36:03;2.27;;;2.07;;
13897;SDS011;7019;50.766;4.474;2023-02-28T14:38:35;2.13;;;1.90;;
13897;SDS011;7019;50.766;4.474;2023-02-28T14:41:12;4.47;;;2.07;;
13897;SDS011;7019;50.766;4.474;2023-02-28T14:43:48;2.13;;;1.70;;
13897;SDS011;7019;50.766;4.474;2023-02-28T14:46:17;4.43;;;2.83;;
13897;SDS011;7019;50.766;4.474;2023-02-28T14:48:45;4.23;;;3.00;;
13897;SDS011;7019;50.766;4.474;2023-02-28T14:51:19;4.97;;;2.37;;
13897;SDS011;7019;50.766;4.474;2023-02-28T14:53:48;3.57;;;2.57;;
13897;SDS011;7019;50.766;4.474;2023-02-28T14:56:19;2.77;;;2.30;;
13897;SDS011;7019;50.766;4.474;2023-02-28T14:58:52;2.93;;;2.20;;
13897;SDS011;7019;50.766;4.474;2023-02-28T15:01:21;4.80;;;2.40;;
13897;SDS011;7019;50.766;4.474;2023-02-28T15:03:56;3.83;;;2.87;;
13897;SDS011;7019;50.766;4.474;2023-02-28T15:06:26;3.40;;;2.33;;
13897;SDS011;7019;50.766;4.474;2023-02-28T15:09:09;3.17;;;2.70;;
13897;SDS011;7019;50.766;4.474;2023-02-28T15:11:39;3.33;;;3.03;;
13897;SDS011;7019;50.766;4.474;2023-02-28T15:14:12;5.03;;;2.60;;
13897;SDS011;7019;50.766;4.474;2023-02-28T15:16:44;3.10;;;2.80;;
13897;SDS011;7019;50.766;4.474;2023-02-28T15:19:18;2.50;;;2.30;;
13897;SDS011;7019;50.766;4.474;2023-02-28T15:21:51;6.37;;;2.60;;
13897;SDS011;7019;50.766;4.474;2023-02-28T15:24:30;4.60;;;2.60;;
13897;SDS011;7019;50.766;4.474;2023-02-28T15:27:04;8.30;;;2.53;;
13897;SDS011;7019;50.766;4.474;2023-02-28T15:29:34;7.00;;;5.10;;
13897;SDS011;7019;50.766;4.474;2023-02-28T15:32:16;8.97;;;3.13;;
13897;SDS011;7019;50.766;4.474;2023-02-28T15:34:52;3.47;;;2.80;;
13897;SDS011;7019;50.766;4.474;2023-02-28T15:37:33;3.43;;;2.53;;
13897;SDS011;7019;50.766;4.474;2023-02-28T15:40:10;3.63;;;2.30;;
13897;SDS011;7019;50.766;4.474;2023-02-28T15:42:40;8.27;;;2.60;;
13897;SDS011;7019;50.766;4.474;2023-02-28T15:47:54;5.63;;;2.73;;
13897;SDS011;7019;50.766;4.474;2023-02-28T15:50:22;6.53;;;3.33;;